createdAt,value
2022-12-23T00:01:00.958Z,9.62
2022-12-23T00:03:29.497Z,9.60
2022-12-23T00:05:56.499Z,9.67
2022-12-23T00:08:24.853Z,9.69
2022-12-23T00:10:52.254Z,9.61
2022-12-23T00:13:38.227Z,9.60
2022-12-23T00:16:07.397Z,9.61
2022-12-23T00:18:34.798Z,9.57
2022-12-23T00:21:08.557Z,9.53
2022-12-23T00:23:38.763Z,9.56
2022-12-23T00:26:06.616Z,9.57
2022-12-23T00:28:33.496Z,9.50
2022-12-23T00:31:04.001Z,9.53
2022-12-23T00:33:42.528Z,9.51
2022-12-23T00:36:12.370Z,9.52
2022-12-23T00:38:57.730Z,9.47
2022-12-23T00:41:43.008Z,9.36
2022-12-23T00:44:09.854Z,9.43
2022-12-23T00:46:36.781Z,9.38
2022-12-23T00:49:21.919Z,9.35
2022-12-23T00:51:48.755Z,9.33
2022-12-23T00:54:15.583Z,9.31
2022-12-23T00:56:42.254Z,9.31
2022-12-23T00:59:09.109Z,9.17
2022-12-23T01:01:54.512Z,9.09
2022-12-23T01:04:40.025Z,9.16
2022-12-23T01:07:07.111Z,9.11
2022-12-23T01:09:34.489Z,9.10
2022-12-23T01:12:01.583Z,9.09
2022-12-23T01:14:28.908Z,9.07
2022-12-23T01:16:55.721Z,9.02
2022-12-23T01:19:22.780Z,8.90
2022-12-23T01:21:49.516Z,9.02
2022-12-23T01:24:16.361Z,8.86
2022-12-23T01:26:43.145Z,9.01
2022-12-23T01:29:09.856Z,8.98
2022-12-23T01:31:36.706Z,8.94
2022-12-23T01:34:03.449Z,8.97
2022-12-23T01:36:30.149Z,8.96
2022-12-23T01:38:57.397Z,8.89
2022-12-23T01:41:45.247Z,8.95
2022-12-23T01:44:49.184Z,8.84
2022-12-23T01:47:28.077Z,8.92
2022-12-23T01:50:12.796Z,8.87
2022-12-23T01:53:07.781Z,8.82
2022-12-23T01:56:00.845Z,8.86
2022-12-23T01:58:36.754Z,8.84
2022-12-23T02:01:26.362Z,8.79
2022-12-23T02:03:59.788Z,8.81
2022-12-23T02:06:48.480Z,8.79
2022-12-23T02:09:21.397Z,8.76
2022-12-23T02:12:06.719Z,8.66
2022-12-23T02:15:10.707Z,8.75
2022-12-23T02:17:51.581Z,8.70
2022-12-23T02:20:40.247Z,8.73
2022-12-23T02:23:19.142Z,8.75
2022-12-23T02:25:54.981Z,8.75
2022-12-23T02:28:49.460Z,8.75
2022-12-23T02:31:39.162Z,8.77
2022-12-23T02:34:29.961Z,8.77
2022-12-23T02:37:10.528Z,8.78
2022-12-23T02:39:48.446Z,8.74
2022-12-23T02:42:22.843Z,8.68
2022-12-23T02:45:09.978Z,8.82
2022-12-23T02:47:41.218Z,8.70
2022-12-23T02:50:17.760Z,8.87
2022-12-23T02:52:47.631Z,8.77
2022-12-23T02:55:20.768Z,8.88
2022-12-23T02:57:51.080Z,8.90
2022-12-23T03:00:18.994Z,8.90
2022-12-23T03:02:46.132Z,8.94
2022-12-23T03:05:39.259Z,9.00
2022-12-23T03:08:12.489Z,9.07
2022-12-23T03:11:04.091Z,9.12
2022-12-23T03:13:42.521Z,9.15
2022-12-23T03:16:18.282Z,9.20
2022-12-23T03:19:23.513Z,9.24
2022-12-23T03:22:35.670Z,9.27
2022-12-23T03:25:17.462Z,9.31
2022-12-23T03:27:58.881Z,9.29
2022-12-23T03:30:25.801Z,9.32
2022-12-23T03:32:59.834Z,9.41
2022-12-23T03:35:33.803Z,9.41
2022-12-23T03:38:03.465Z,9.49
2022-12-23T03:40:36.858Z,9.41
2022-12-23T03:43:08.106Z,9.49
2022-12-23T03:45:43.659Z,9.54
2022-12-23T03:48:18.333Z,9.58
2022-12-23T03:50:48.775Z,9.55
2022-12-23T03:53:41.021Z,9.68
2022-12-23T03:56:19.334Z,9.67
2022-12-23T03:58:56.323Z,9.70
2022-12-23T04:01:52.352Z,9.76
2022-12-23T04:04:50.915Z,9.79
2022-12-23T04:07:23.696Z,9.81
2022-12-23T04:09:53.366Z,9.81
2022-12-23T04:12:24.055Z,9.80
2022-12-23T04:14:51.626Z,9.88
2022-12-23T04:17:19.265Z,9.84
2022-12-23T04:19:47.174Z,9.90
2022-12-23T04:22:15.488Z,9.88
2022-12-23T04:24:43.032Z,9.93
2022-12-23T04:27:13.075Z,9.85
2022-12-23T04:29:39.836Z,9.95
2022-12-23T04:32:07.908Z,10.00
2022-12-23T04:34:34.707Z,9.85
2022-12-23T04:37:01.577Z,9.84
2022-12-23T04:39:28.241Z,9.94
2022-12-23T04:41:55.056Z,9.89
2022-12-23T04:44:21.711Z,10.03
2022-12-23T04:46:48.376Z,10.00
2022-12-23T04:49:15.083Z,10.02
2022-12-23T04:51:41.739Z,9.95
2022-12-23T04:54:08.440Z,9.98
2022-12-23T04:56:35.051Z,9.99
2022-12-23T04:59:02.467Z,10.03
2022-12-23T05:01:29.809Z,10.01
2022-12-23T05:03:56.605Z,10.05
2022-12-23T05:06:23.293Z,10.13
2022-12-23T05:08:49.919Z,10.07
2022-12-23T05:11:16.663Z,10.14
2022-12-23T05:13:43.377Z,10.11
2022-12-23T05:16:10.234Z,10.12
2022-12-23T05:18:36.914Z,10.14
2022-12-23T05:21:03.725Z,10.17
2022-12-23T05:23:30.580Z,10.15
2022-12-23T05:25:57.191Z,10.20
2022-12-23T05:28:24.250Z,10.24
2022-12-23T05:31:01.527Z,10.21
2022-12-23T05:33:28.767Z,10.21
2022-12-23T05:35:55.914Z,10.27
2022-12-23T05:38:23.228Z,10.26
2022-12-23T05:40:50.175Z,10.25
2022-12-23T05:43:17.120Z,10.17
2022-12-23T05:45:50.280Z,10.15
2022-12-23T05:48:20.266Z,10.32
2022-12-23T05:50:51.076Z,10.32
2022-12-23T05:53:17.924Z,10.33
2022-12-23T05:55:44.643Z,10.33
2022-12-23T05:58:11.521Z,10.35
2022-12-23T06:00:38.220Z,10.33
2022-12-23T06:03:05.077Z,10.31
2022-12-23T06:05:31.855Z,10.40
2022-12-23T06:07:58.507Z,10.40
2022-12-23T06:10:25.205Z,10.40
2022-12-23T06:12:51.886Z,10.36
2022-12-23T06:15:18.628Z,10.39
2022-12-23T06:17:45.409Z,10.31
2022-12-23T06:20:19.938Z,10.41
2022-12-23T06:22:47.841Z,10.43
2022-12-23T06:25:14.583Z,10.36
2022-12-23T06:27:41.292Z,10.40
2022-12-23T06:30:11.508Z,10.24
2022-12-23T06:32:48.803Z,10.46
2022-12-23T06:35:15.640Z,10.55
2022-12-23T06:37:42.540Z,10.21
2022-12-23T06:40:09.888Z,10.25
2022-12-23T06:42:36.842Z,10.49
2022-12-23T06:45:06.595Z,10.59
2022-12-23T06:47:54.174Z,10.29
2022-12-23T06:50:24.167Z,10.32
2022-12-23T06:52:50.810Z,10.51
2022-12-23T06:55:17.443Z,10.46
2022-12-23T06:57:45.034Z,10.58
2022-12-23T07:00:15.456Z,10.12
2022-12-23T07:02:42.325Z,10.62
2022-12-23T07:05:09.648Z,10.23
2022-12-23T07:07:36.827Z,10.63
2022-12-23T07:10:03.929Z,10.48
2022-12-23T07:12:30.645Z,10.56
2022-12-23T07:14:57.335Z,10.61
2022-12-23T07:17:24.108Z,10.41
2022-12-23T07:20:05.973Z,10.30
2022-12-23T07:23:04.018Z,10.34
2022-12-23T07:25:34.564Z,10.33
2022-12-23T07:28:01.687Z,10.36
2022-12-23T07:30:30.488Z,10.18
2022-12-23T07:33:01.147Z,10.60
2022-12-23T07:35:28.289Z,10.27
2022-12-23T07:38:05.253Z,10.31
2022-12-23T07:40:34.895Z,10.14
2022-12-23T07:43:02.078Z,10.12
2022-12-23T07:46:05.606Z,10.60
2022-12-23T07:48:32.314Z,10.43
2022-12-23T07:51:03.117Z,10.52
2022-12-23T07:53:29.876Z,10.59
2022-12-23T07:55:57.148Z,10.67
2022-12-23T07:58:24.452Z,10.71
2022-12-23T08:00:51.637Z,10.75
2022-12-23T08:03:18.397Z,10.70
2022-12-23T08:05:45.283Z,10.68
2022-12-23T08:08:12.665Z,10.74
2022-12-23T08:10:46.150Z,10.76
2022-12-23T08:13:14.939Z,10.77
2022-12-23T08:15:41.743Z,10.72
2022-12-23T08:18:08.434Z,11.05
2022-12-23T08:20:35.123Z,10.84
2022-12-23T08:23:01.727Z,10.88
2022-12-23T08:25:28.432Z,10.87
2022-12-23T08:27:55.101Z,10.84
2022-12-23T08:30:22.043Z,10.84
2022-12-23T08:32:48.763Z,10.86
2022-12-23T08:35:15.644Z,10.85
2022-12-23T08:37:42.247Z,10.81
2022-12-23T08:40:09.408Z,10.81
2022-12-23T08:42:36.043Z,10.79
2022-12-23T08:45:02.830Z,10.78
2022-12-23T08:47:29.478Z,10.82
2022-12-23T08:49:56.224Z,10.85
2022-12-23T08:52:22.958Z,10.89
2022-12-23T08:54:49.589Z,10.83
2022-12-23T08:57:16.279Z,10.85
2022-12-23T08:59:43.107Z,10.83
2022-12-23T09:02:11.839Z,10.85
2022-12-23T09:04:38.551Z,10.93
2022-12-23T09:07:05.197Z,10.97
2022-12-23T09:09:31.997Z,11.02
2022-12-23T09:11:58.651Z,11.03
2022-12-23T09:14:25.338Z,11.01
2022-12-23T09:16:52.617Z,11.04
2022-12-23T09:19:19.339Z,11.05
2022-12-23T09:21:46.336Z,11.07
2022-12-23T09:24:13.013Z,11.10
2022-12-23T09:26:39.865Z,11.03
2022-12-23T09:29:06.618Z,10.96
2022-12-23T09:31:37.294Z,11.03
2022-12-23T09:34:05.828Z,11.06
2022-12-23T09:36:32.622Z,11.10
2022-12-23T09:38:59.662Z,11.12
2022-12-23T09:41:35.061Z,11.16
2022-12-23T09:44:07.449Z,11.15
2022-12-23T09:46:38.220Z,11.09
2022-12-23T09:49:12.375Z,11.12
2022-12-23T09:51:39.396Z,11.19
2022-12-23T09:54:20.420Z,11.24
2022-12-23T09:56:57.574Z,11.25
2022-12-23T09:59:42.223Z,11.29
2022-12-23T10:02:08.927Z,11.29
2022-12-23T10:04:45.629Z,11.23
2022-12-23T10:07:33.149Z,11.27
2022-12-23T10:10:07.464Z,11.32
2022-12-23T10:12:44.972Z,11.28
2022-12-23T10:15:39.334Z,11.33
2022-12-23T10:18:40.341Z,11.35
2022-12-23T10:21:15.559Z,11.37
2022-12-23T10:23:46.448Z,11.38
2022-12-23T10:26:25.154Z,11.41
2022-12-23T10:29:05.480Z,11.45
2022-12-23T10:31:45.581Z,11.46
2022-12-23T10:34:22.373Z,11.47
2022-12-23T10:36:59.045Z,11.46
2022-12-23T10:39:35.478Z,11.48
2022-12-23T10:42:08.583Z,11.49
2022-12-23T10:44:59.479Z,11.51
2022-12-23T10:47:41.030Z,11.54
2022-12-23T10:50:26.677Z,11.53
2022-12-23T10:52:57.913Z,11.56
2022-12-23T10:55:33.138Z,11.58
2022-12-23T10:58:07.729Z,11.55
2022-12-23T11:00:38.212Z,11.53
2022-12-23T11:03:27.441Z,11.53
2022-12-23T11:05:54.924Z,11.52
2022-12-23T11:08:23.146Z,11.47
2022-12-23T11:10:50.445Z,11.46
2022-12-23T11:13:36.649Z,11.40
2022-12-23T11:16:28.848Z,11.33
2022-12-23T11:19:13.517Z,11.38
2022-12-23T11:21:57.439Z,11.37
2022-12-23T11:24:25.398Z,11.36
2022-12-23T11:27:02.472Z,11.34
2022-12-23T11:29:36.482Z,11.36
2022-12-23T11:32:17.216Z,11.32
2022-12-23T11:34:47.536Z,11.29
2022-12-23T11:37:44.040Z,11.36
2022-12-23T11:40:35.657Z,11.36
2022-12-23T11:43:07.421Z,11.34
2022-12-23T11:45:36.909Z,11.33
2022-12-23T11:48:05.360Z,11.34
2022-12-23T11:50:31.991Z,11.33
2022-12-23T11:53:12.223Z,11.37
2022-12-23T11:55:46.512Z,11.36
2022-12-23T11:58:19.907Z,11.39
2022-12-23T12:00:56.450Z,11.40
2022-12-23T12:03:34.870Z,11.42
2022-12-23T12:06:05.154Z,11.40
2022-12-23T12:08:35.515Z,11.44
2022-12-23T12:11:07.558Z,11.46
2022-12-23T12:13:50.764Z,11.46
2022-12-23T12:16:52.759Z,11.54
2022-12-23T12:19:28.199Z,11.56
2022-12-23T12:21:59.537Z,11.57
2022-12-23T12:24:32.052Z,11.58
2022-12-23T12:27:04.841Z,11.57
2022-12-23T12:29:55.658Z,11.57
2022-12-23T12:32:41.043Z,11.59
2022-12-23T12:35:19.687Z,11.58
2022-12-23T12:37:57.576Z,11.60
2022-12-23T12:40:45.705Z,11.61
2022-12-23T12:43:37.961Z,11.60
2022-12-23T12:46:24.376Z,11.60
2022-12-23T12:49:15.172Z,11.60
2022-12-23T12:52:00.323Z,11.60
2022-12-23T12:54:39.751Z,11.54
2022-12-23T12:57:06.937Z,11.54
2022-12-23T12:59:39.035Z,11.58
2022-12-23T13:02:20.659Z,11.56
2022-12-23T13:04:47.962Z,11.54
2022-12-23T13:07:26.586Z,11.46
2022-12-23T13:10:20.174Z,11.42
2022-12-23T13:13:13.632Z,11.40
2022-12-23T13:15:49.560Z,11.36
2022-12-23T13:18:35.788Z,11.33
2022-12-23T13:21:12.714Z,11.34
2022-12-23T13:23:52.503Z,11.29
2022-12-23T13:26:31.888Z,11.30
2022-12-23T13:29:23.137Z,11.22
2022-12-23T13:32:14.821Z,11.26
2022-12-23T13:35:04.855Z,11.21
2022-12-23T13:37:45.592Z,11.18
2022-12-23T13:40:33.890Z,11.17
2022-12-23T13:43:10.217Z,11.12
2022-12-23T13:45:39.872Z,11.08
2022-12-23T13:49:05.012Z,11.10
2022-12-23T13:51:43.906Z,11.04
2022-12-23T13:54:16.387Z,11.04
2022-12-23T13:56:55.125Z,11.02
2022-12-23T13:59:21.825Z,10.98
2022-12-23T14:01:52.549Z,10.98
2022-12-23T14:04:35.867Z,10.93
2022-12-23T14:07:20.537Z,10.93
2022-12-23T14:09:59.171Z,10.91
2022-12-23T14:12:38.143Z,10.90
2022-12-23T14:15:32.578Z,10.93
2022-12-23T14:18:08.385Z,10.90
2022-12-23T14:20:53.005Z,10.91
2022-12-23T14:23:31.890Z,10.90
2022-12-23T14:26:25.193Z,10.87
2022-12-23T14:29:10.602Z,10.88
2022-12-23T14:31:42.666Z,10.83
2022-12-23T14:34:18.370Z,10.90
2022-12-23T14:37:20.446Z,10.87
2022-12-23T14:39:48.118Z,10.82
2022-12-23T14:42:34.254Z,10.84
2022-12-23T14:45:41.701Z,10.74
2022-12-23T14:48:36.062Z,10.73
2022-12-23T14:51:23.765Z,10.72
2022-12-23T14:53:59.529Z,10.69
2022-12-23T14:56:26.307Z,10.69
2022-12-23T14:59:14.611Z,10.74
2022-12-23T15:01:53.060Z,10.69
2022-12-23T15:04:24.871Z,10.68
2022-12-23T15:06:55.760Z,10.72
2022-12-23T15:09:26.896Z,10.71
2022-12-23T15:11:55.751Z,10.70
2022-12-23T15:14:35.803Z,10.68
2022-12-23T15:17:25.956Z,10.73
2022-12-23T15:19:53.409Z,10.77
2022-12-23T15:22:25.625Z,10.77
2022-12-23T15:24:55.051Z,10.76
2022-12-23T15:27:30.349Z,10.74
2022-12-23T15:29:57.851Z,10.76
2022-12-23T15:32:26.817Z,10.73
2022-12-23T15:35:04.301Z,10.79
2022-12-23T15:37:32.511Z,10.71
2022-12-23T15:40:09.289Z,10.72
2022-12-23T15:42:38.667Z,10.64
2022-12-23T15:45:41.574Z,10.64
2022-12-23T15:48:25.226Z,10.65
2022-12-23T15:50:55.231Z,10.60
2022-12-23T15:53:22.082Z,10.56
2022-12-23T15:55:49.920Z,10.52
2022-12-23T15:58:23.130Z,10.59
2022-12-23T16:00:53.293Z,10.57
2022-12-23T16:03:42.698Z,10.54
2022-12-23T16:06:18.543Z,10.60
2022-12-23T16:08:55.063Z,10.59
2022-12-23T16:11:22.988Z,10.51
2022-12-23T16:14:34.070Z,10.21
2022-12-23T16:17:13.172Z,10.26
2022-12-23T16:19:52.892Z,10.54
2022-12-23T16:22:22.836Z,10.11
2022-12-23T16:25:02.184Z,10.45
2022-12-23T16:27:43.942Z,10.57
2022-12-23T16:30:22.177Z,10.27
2022-12-23T16:36:46.897Z,10.35
2022-12-23T16:39:21.896Z,10.52
2022-12-23T16:41:49.907Z,10.49
2022-12-23T16:44:16.781Z,10.17
2022-12-23T16:46:48.272Z,10.36
2022-12-23T16:49:33.234Z,10.32
2022-12-23T16:52:01.091Z,10.34
2022-12-23T16:54:32.455Z,10.40
2022-12-23T16:57:03.505Z,10.08
2022-12-23T16:59:39.582Z,10.13
2022-12-23T17:02:24.202Z,10.63
2022-12-23T17:04:54.258Z,10.73
2022-12-23T17:07:23.324Z,10.60
2022-12-23T17:09:55.746Z,10.72
2022-12-23T17:12:22.838Z,10.54
2022-12-23T17:14:49.573Z,10.72
2022-12-23T17:17:16.310Z,10.71
2022-12-23T17:19:43.179Z,10.76
2022-12-23T17:22:13.248Z,10.83
2022-12-23T17:24:40.093Z,10.69
2022-12-23T17:27:13.712Z,10.90
2022-12-23T17:29:47.385Z,10.42
2022-12-23T17:32:17.951Z,10.94
2022-12-23T17:34:52.423Z,11.07
2022-12-23T17:37:21.602Z,11.06
2022-12-23T17:39:48.659Z,10.96
2022-12-23T17:42:24.976Z,10.85
2022-12-23T17:44:52.409Z,11.07
2022-12-23T17:47:22.395Z,11.21
2022-12-23T17:49:52.383Z,11.09
2022-12-23T17:52:26.639Z,11.14
2022-12-23T17:54:53.644Z,10.79
2022-12-23T17:57:23.461Z,10.92
2022-12-23T17:59:52.227Z,10.78
2022-12-23T18:02:26.092Z,11.17
2022-12-23T18:04:57.354Z,10.89
2022-12-23T18:07:28.121Z,10.76
2022-12-23T18:09:55.251Z,10.84
2022-12-23T18:12:39.879Z,11.19
2022-12-23T18:15:14.308Z,10.61
2022-12-23T18:17:41.119Z,10.91
2022-12-23T18:20:15.255Z,11.04
2022-12-23T18:22:42.448Z,10.92
2022-12-23T18:25:22.216Z,10.97
2022-12-23T18:27:49.721Z,11.07
2022-12-23T18:30:16.963Z,11.17
2022-12-23T18:32:44.625Z,10.99
2022-12-23T18:35:30.548Z,11.04
2022-12-23T18:37:58.938Z,11.18
2022-12-23T18:40:32.559Z,11.16
2022-12-23T18:43:00.009Z,11.06
2022-12-23T18:45:29.525Z,11.20
2022-12-23T18:47:57.342Z,11.23
2022-12-23T18:50:25.680Z,11.09
2022-12-23T18:52:52.703Z,10.91
2022-12-23T18:55:20.209Z,11.28
2022-12-23T18:57:48.575Z,11.32
2022-12-23T19:00:19.310Z,11.28
2022-12-23T19:02:46.621Z,11.36
2022-12-23T19:05:28.650Z,11.09
2022-12-23T19:07:57.570Z,11.37
2022-12-23T19:10:26.602Z,11.39
2022-12-23T19:12:54.176Z,11.40
2022-12-23T19:15:22.951Z,11.30
2022-12-23T19:17:52.963Z,11.36
2022-12-23T19:20:20.954Z,11.19
2022-12-23T19:22:48.771Z,11.43
2022-12-23T19:25:18.880Z,11.36
2022-12-23T19:27:46.441Z,11.28
2022-12-23T19:30:16.643Z,11.41
2022-12-23T19:32:44.291Z,11.48
2022-12-23T19:35:14.952Z,11.38
2022-12-23T19:37:42.779Z,11.39
2022-12-23T19:40:10.643Z,11.52
2022-12-23T19:42:39.172Z,11.32
2022-12-23T19:45:08.178Z,11.42
2022-12-23T19:47:36.657Z,11.33
2022-12-23T19:50:11.845Z,11.30
2022-12-23T19:52:41.256Z,11.28
2022-12-23T19:55:12.904Z,11.56
2022-12-23T19:57:39.943Z,11.42
2022-12-23T20:00:08.083Z,10.92
2022-12-23T20:02:40.798Z,11.15
2022-12-23T20:05:11.521Z,10.95
2022-12-23T20:07:38.534Z,11.46
2022-12-23T20:10:06.761Z,11.27
2022-12-23T20:12:33.631Z,11.46
2022-12-23T20:15:03.334Z,11.46
2022-12-23T20:17:30.102Z,11.53
2022-12-23T20:19:57.562Z,11.10
2022-12-23T20:22:24.479Z,11.09
2022-12-23T20:24:51.427Z,11.10
2022-12-23T20:27:22.656Z,11.43
2022-12-23T20:29:52.980Z,11.11
2022-12-23T20:32:19.808Z,11.61
2022-12-23T20:34:48.053Z,11.63
2022-12-23T20:37:16.169Z,11.38
2022-12-23T20:39:42.898Z,11.71
2022-12-23T20:42:09.588Z,11.70
2022-12-23T20:44:39.341Z,11.76
2022-12-23T20:47:06.507Z,11.76
2022-12-23T20:49:33.643Z,11.72
2022-12-23T20:52:01.101Z,11.67
2022-12-23T20:54:32.839Z,11.82
2022-12-23T20:57:01.923Z,11.89
2022-12-23T20:59:28.880Z,11.75
2022-12-23T21:02:02.758Z,11.77
2022-12-23T21:04:35.051Z,11.54
2022-12-23T21:07:05.857Z,11.48
2022-12-23T21:09:38.323Z,11.30
2022-12-23T21:12:07.675Z,11.07
2022-12-23T21:14:37.683Z,11.40
2022-12-23T21:17:04.617Z,11.56
2022-12-23T21:19:31.422Z,11.39
2022-12-23T21:21:58.379Z,11.52
2022-12-23T21:24:25.833Z,11.05
2022-12-23T21:27:04.415Z,10.90
2022-12-23T21:29:31.565Z,11.11
2022-12-23T21:32:00.364Z,11.30
2022-12-23T21:34:27.331Z,11.20
2022-12-23T21:36:54.304Z,11.27
2022-12-23T21:39:21.173Z,11.11
2022-12-23T21:41:51.057Z,10.87
2022-12-23T21:44:17.941Z,10.76
2022-12-23T21:46:44.870Z,10.68
2022-12-23T21:49:12.052Z,10.68
2022-12-23T21:51:41.253Z,10.50
2022-12-23T21:54:10.537Z,10.67
2022-12-23T21:56:49.014Z,10.56
2022-12-23T21:59:24.210Z,9.85
2022-12-23T22:02:05.169Z,9.85
2022-12-23T22:04:32.313Z,10.34
2022-12-23T22:06:59.447Z,10.15
2022-12-23T22:09:32.991Z,10.10
2022-12-23T22:11:59.975Z,10.23
2022-12-23T22:14:27.356Z,10.56
2022-12-23T22:16:54.171Z,10.45
2022-12-23T22:19:20.936Z,10.51
2022-12-23T22:21:47.685Z,10.50
2022-12-23T22:24:14.733Z,10.48
2022-12-23T22:26:41.994Z,10.50
2022-12-23T22:29:10.619Z,10.55
2022-12-23T22:31:43.086Z,10.59
2022-12-23T22:34:14.019Z,10.61
2022-12-23T22:36:40.815Z,10.57
2022-12-23T22:39:08.252Z,10.63
2022-12-23T22:41:35.511Z,10.66
2022-12-23T22:44:02.205Z,10.64
2022-12-23T22:46:29.228Z,10.64
2022-12-23T22:48:56.515Z,10.84
2022-12-23T22:51:26.463Z,10.87
2022-12-23T22:53:53.809Z,10.76
2022-12-23T22:56:21.823Z,10.88
2022-12-23T22:58:49.770Z,10.96
2022-12-23T23:01:26.018Z,10.97
2022-12-23T23:03:57.578Z,10.97
2022-12-23T23:06:30.091Z,10.93
2022-12-23T23:08:57.061Z,10.92
2022-12-23T23:11:25.564Z,10.96
2022-12-23T23:13:52.561Z,10.92
2022-12-23T23:16:19.451Z,10.91
2022-12-23T23:18:46.651Z,10.91
2022-12-23T23:21:14.636Z,10.98
2022-12-23T23:23:41.516Z,10.96
2022-12-23T23:26:11.039Z,11.03
2022-12-23T23:28:39.443Z,11.02
2022-12-23T23:31:40.616Z,10.98
2022-12-23T23:33:53.972Z,10.99
2022-12-23T23:36:20.997Z,10.87
2022-12-23T23:38:47.746Z,11.04
2022-12-23T23:41:18.897Z,10.98
2022-12-23T23:43:49.436Z,10.87
2022-12-23T23:46:16.123Z,11.06
2022-12-23T23:48:42.812Z,11.02
2022-12-23T23:51:09.488Z,11.03
2022-12-23T23:53:42.127Z,11.05
2022-12-23T23:56:09.366Z,11.01
2022-12-23T23:58:36.792Z,11.07
